sensor_id;sensor_type;location;lat;lon;timestamp;pressure;altitude;pressure_sealevel;temperature;humidity
48204;BME280;33994;50.998;5.864;2023-01-25T00:01:31;103178.38;;;0.83;81.48
48204;BME280;33994;50.998;5.864;2023-01-25T00:04:34;103175.72;;;0.81;81.33
48204;BME280;33994;50.998;5.864;2023-01-25T00:07:37;103173.22;;;0.83;81.48
48204;BME280;33994;50.998;5.864;2023-01-25T00:10:41;103166.31;;;0.82;81.74
48204;BME280;33994;50.998;5.864;2023-01-25T00:13:44;103167.00;;;0.79;81.17
48204;BME280;33994;50.998;5.864;2023-01-25T00:16:48;103159.78;;;0.74;81.78
48204;BME280;33994;50.998;5.864;2023-01-25T00:19:51;103158.69;;;0.70;81.83
48204;BME280;33994;50.998;5.864;2023-01-25T00:22:53;103157.22;;;0.74;81.71
48204;BME280;33994;50.998;5.864;2023-01-25T00:25:58;103158.00;;;0.73;81.32
48204;BME280;33994;50.998;5.864;2023-01-25T00:29:01;103152.75;;;0.71;81.50
48204;BME280;33994;50.998;5.864;2023-01-25T00:32:35;103146.72;;;0.70;81.90
48204;BME280;33994;50.998;5.864;2023-01-25T00:35:39;103146.63;;;0.69;81.81
48204;BME280;33994;50.998;5.864;2023-01-25T00:38:42;103141.34;;;0.67;82.12
48204;BME280;33994;50.998;5.864;2023-01-25T00:41:46;103145.81;;;0.70;82.25
48204;BME280;33994;50.998;5.864;2023-01-25T00:44:49;103145.13;;;0.73;81.82
48204;BME280;33994;50.998;5.864;2023-01-25T00:47:54;103144.94;;;0.69;81.96
48204;BME280;33994;50.998;5.864;2023-01-25T00:50:59;103138.97;;;0.70;82.10
48204;BME280;33994;50.998;5.864;2023-01-25T00:54:02;103137.28;;;0.71;82.24
48204;BME280;33994;50.998;5.864;2023-01-25T00:57:07;103129.28;;;0.66;82.13
48204;BME280;33994;50.998;5.864;2023-01-25T01:00:11;103131.97;;;0.68;81.58
48204;BME280;33994;50.998;5.864;2023-01-25T01:03:15;103128.19;;;0.63;81.91
48204;BME280;33994;50.998;5.864;2023-01-25T01:06:18;103121.56;;;0.66;81.95
48204;BME280;33994;50.998;5.864;2023-01-25T01:09:21;103121.66;;;0.68;82.40
48204;BME280;33994;50.998;5.864;2023-01-25T01:12:26;103133.03;;;0.71;82.31
48204;BME280;33994;50.998;5.864;2023-01-25T01:15:29;103127.78;;;0.70;82.61
48204;BME280;33994;50.998;5.864;2023-01-25T01:18:33;103129.28;;;0.66;81.92
48204;BME280;33994;50.998;5.864;2023-01-25T01:21:37;103127.31;;;0.62;82.05
48204;BME280;33994;50.998;5.864;2023-01-25T01:24:40;103122.16;;;0.62;82.42
48204;BME280;33994;50.998;5.864;2023-01-25T01:27:45;103126.34;;;0.60;82.48
48204;BME280;33994;50.998;5.864;2023-01-25T01:30:48;103114.97;;;0.57;82.20
48204;BME280;33994;50.998;5.864;2023-01-25T01:33:52;103124.34;;;0.56;82.29
48204;BME280;33994;50.998;5.864;2023-01-25T01:36:56;103121.59;;;0.53;82.39
48204;BME280;33994;50.998;5.864;2023-01-25T01:39:59;103114.84;;;0.55;82.60
48204;BME280;33994;50.998;5.864;2023-01-25T01:43:05;103121.00;;;0.57;82.88
48204;BME280;33994;50.998;5.864;2023-01-25T01:46:20;103114.84;;;0.55;82.93
48204;BME280;33994;50.998;5.864;2023-01-25T01:49:26;103122.50;;;0.54;82.23
48204;BME280;33994;50.998;5.864;2023-01-25T01:52:35;103111.09;;;0.50;82.48
48204;BME280;33994;50.998;5.864;2023-01-25T01:55:39;103112.88;;;0.51;82.79
48204;BME280;33994;50.998;5.864;2023-01-25T01:58:46;103118.03;;;0.51;82.53
48204;BME280;33994;50.998;5.864;2023-01-25T02:01:50;103114.56;;;0.51;83.67
48204;BME280;33994;50.998;5.864;2023-01-25T02:04:56;103112.88;;;0.51;83.25
48204;BME280;33994;50.998;5.864;2023-01-25T02:08:01;103117.22;;;0.52;83.43
48204;BME280;33994;50.998;5.864;2023-01-25T02:11:06;103109.50;;;0.52;83.44
48204;BME280;33994;50.998;5.864;2023-01-25T02:14:11;103109.50;;;0.52;83.59
48204;BME280;33994;50.998;5.864;2023-01-25T02:17:18;103115.56;;;0.53;83.96
48204;BME280;33994;50.998;5.864;2023-01-25T02:20:26;103120.00;;;0.55;83.95
48204;BME280;33994;50.998;5.864;2023-01-25T02:23:37;103114.84;;;0.55;84.00
48204;BME280;33994;50.998;5.864;2023-01-25T02:26:44;103112.38;;;0.57;83.80
48204;BME280;33994;50.998;5.864;2023-01-25T02:29:48;103114.03;;;0.56;84.03
48204;BME280;33994;50.998;5.864;2023-01-25T02:32:51;103110.41;;;0.53;84.00
48204;BME280;33994;50.998;5.864;2023-01-25T02:35:58;103110.50;;;0.54;83.78
48204;BME280;33994;50.998;5.864;2023-01-25T02:39:04;103111.91;;;0.49;83.98
48204;BME280;33994;50.998;5.864;2023-01-25T02:42:09;103115.25;;;0.48;83.83
48204;BME280;33994;50.998;5.864;2023-01-25T02:45:15;103111.72;;;0.46;84.26
48204;BME280;33994;50.998;5.864;2023-01-25T02:48:21;103101.28;;;0.44;84.62
48204;BME280;33994;50.998;5.864;2023-01-25T02:51:26;103102.78;;;0.41;84.55
48204;BME280;33994;50.998;5.864;2023-01-25T02:54:30;103098.97;;;0.34;84.85
48204;BME280;33994;50.998;5.864;2023-01-25T02:57:35;103098.16;;;0.35;84.96
48204;BME280;33994;50.998;5.864;2023-01-25T03:00:38;103096.47;;;0.36;85.03
48204;BME280;33994;50.998;5.864;2023-01-25T03:03:41;103093.50;;;0.30;85.25
48204;BME280;33994;50.998;5.864;2023-01-25T03:06:44;103092.72;;;0.31;85.01
48204;BME280;33994;50.998;5.864;2023-01-25T03:09:47;103093.81;;;0.34;85.20
48204;BME280;33994;50.998;5.864;2023-01-25T03:12:53;103093.09;;;0.37;85.22
48204;BME280;33994;50.998;5.864;2023-01-25T03:15:58;103090.72;;;0.40;85.02
48204;BME280;33994;50.998;5.864;2023-01-25T03:19:01;103091.72;;;0.42;85.49
48204;BME280;33994;50.998;5.864;2023-01-25T03:22:04;103101.91;;;0.40;85.25
48204;BME280;33994;50.998;5.864;2023-01-25T03:25:08;103094.09;;;0.39;85.23
48204;BME280;33994;50.998;5.864;2023-01-25T03:28:13;103088.66;;;0.34;85.37
48204;BME280;33994;50.998;5.864;2023-01-25T03:31:16;103083.00;;;0.40;85.06
48204;BME280;33994;50.998;5.864;2023-01-25T03:34:20;103089.91;;;0.41;85.32
48204;BME280;33994;50.998;5.864;2023-01-25T03:37:23;103080.22;;;0.37;85.02
48204;BME280;33994;50.998;5.864;2023-01-25T03:40:26;103081.09;;;0.37;85.44
48204;BME280;33994;50.998;5.864;2023-01-25T03:43:31;103082.09;;;0.39;85.35
48204;BME280;33994;50.998;5.864;2023-01-25T03:46:33;103069.16;;;0.38;85.21
48204;BME280;33994;50.998;5.864;2023-01-25T03:49:37;103068.34;;;0.39;85.69
48204;BME280;33994;50.998;5.864;2023-01-25T03:52:40;103072.69;;;0.40;85.70
48204;BME280;33994;50.998;5.864;2023-01-25T03:55:43;103077.47;;;0.34;85.49
48204;BME280;33994;50.998;5.864;2023-01-25T03:58:47;103079.84;;;0.31;85.47
48204;BME280;33994;50.998;5.864;2023-01-25T04:01:51;103083.81;;;0.26;85.96
48204;BME280;33994;50.998;5.864;2023-01-25T04:04:53;103080.25;;;0.24;86.26
48204;BME280;33994;50.998;5.864;2023-01-25T04:07:57;103070.16;;;0.27;85.90
48204;BME280;33994;50.998;5.864;2023-01-25T04:11:02;103070.94;;;0.26;86.22
48204;BME280;33994;50.998;5.864;2023-01-25T04:14:09;103068.47;;;0.27;86.20
48204;BME280;33994;50.998;5.864;2023-01-25T04:17:12;103066.88;;;0.29;86.20
48204;BME280;33994;50.998;5.864;2023-01-25T04:20:16;103065.19;;;0.30;85.86
48204;BME280;33994;50.998;5.864;2023-01-25T04:23:19;103052.16;;;0.27;86.08
48204;BME280;33994;50.998;5.864;2023-01-25T04:26:22;103057.38;;;0.28;86.31
48204;BME280;33994;50.998;5.864;2023-01-25T04:29:26;103052.44;;;0.31;86.52
48204;BME280;33994;50.998;5.864;2023-01-25T04:32:29;103051.53;;;0.31;86.71
48204;BME280;33994;50.998;5.864;2023-01-25T04:35:32;103050.75;;;0.32;86.95
48204;BME280;33994;50.998;5.864;2023-01-25T04:38:35;103054.53;;;0.24;87.22
48204;BME280;33994;50.998;5.864;2023-01-25T04:41:39;103041.66;;;0.24;87.03
48204;BME280;33994;50.998;5.864;2023-01-25T04:44:43;103039.34;;;0.28;87.33
48204;BME280;33994;50.998;5.864;2023-01-25T04:47:46;103031.84;;;0.31;87.23
48204;BME280;33994;50.998;5.864;2023-01-25T04:50:49;103024.00;;;0.30;87.12
48204;BME280;33994;50.998;5.864;2023-01-25T04:53:52;103019.03;;;0.33;87.00
48204;BME280;33994;50.998;5.864;2023-01-25T04:56:55;103024.00;;;0.30;87.04
48204;BME280;33994;50.998;5.864;2023-01-25T05:00:00;103014.41;;;0.27;86.55
48204;BME280;33994;50.998;5.864;2023-01-25T05:03:03;103014.31;;;0.26;87.13
48204;BME280;33994;50.998;5.864;2023-01-25T05:06:06;103014.22;;;0.24;87.30
48204;BME280;33994;50.998;5.864;2023-01-25T05:09:10;103015.91;;;0.24;86.98
48204;BME280;33994;50.998;5.864;2023-01-25T05:12:13;103016.00;;;0.25;87.45
48204;BME280;33994;50.998;5.864;2023-01-25T05:15:18;103015.09;;;0.25;87.58
48204;BME280;33994;50.998;5.864;2023-01-25T05:18:21;103016.72;;;0.23;87.67
48204;BME280;33994;50.998;5.864;2023-01-25T05:21:24;103011.38;;;0.19;87.72
48204;BME280;33994;50.998;5.864;2023-01-25T05:24:28;103007.59;;;0.28;87.87
48204;BME280;33994;50.998;5.864;2023-01-25T05:27:32;103005.00;;;0.28;87.81
48204;BME280;33994;50.998;5.864;2023-01-25T05:30:37;103005.63;;;0.24;87.95
48204;BME280;33994;50.998;5.864;2023-01-25T05:33:40;103000.19;;;0.19;87.83
48204;BME280;33994;50.998;5.864;2023-01-25T05:36:42;102995.81;;;0.18;87.91
48204;BME280;33994;50.998;5.864;2023-01-25T05:39:46;103004.44;;;0.18;88.14
48204;BME280;33994;50.998;5.864;2023-01-25T05:42:52;103007.81;;;0.17;88.46
48204;BME280;33994;50.998;5.864;2023-01-25T05:45:57;103000.69;;;0.13;89.14
48204;BME280;33994;50.998;5.864;2023-01-25T05:49:00;103003.19;;;0.12;88.84
48204;BME280;33994;50.998;5.864;2023-01-25T05:52:04;103000.50;;;0.10;89.22
48204;BME280;33994;50.998;5.864;2023-01-25T05:55:07;103006.56;;;0.11;89.49
48204;BME280;33994;50.998;5.864;2023-01-25T05:58:10;103002.44;;;0.14;89.81
48204;BME280;33994;50.998;5.864;2023-01-25T06:01:15;102996.72;;;0.18;89.71
48204;BME280;33994;50.998;5.864;2023-01-25T06:04:18;102999.31;;;0.18;89.50
48204;BME280;33994;50.998;5.864;2023-01-25T06:07:21;102996.72;;;0.18;89.46
48204;BME280;33994;50.998;5.864;2023-01-25T06:10:24;102996.53;;;0.15;89.91
48204;BME280;33994;50.998;5.864;2023-01-25T06:13:27;102995.94;;;0.19;89.99
48204;BME280;33994;50.998;5.864;2023-01-25T06:16:32;102999.59;;;0.23;89.94
48204;BME280;33994;50.998;5.864;2023-01-25T06:19:35;102996.28;;;0.26;90.35
48204;BME280;33994;50.998;5.864;2023-01-25T06:22:38;102995.59;;;0.28;89.96
48204;BME280;33994;50.998;5.864;2023-01-25T06:25:41;103001.75;;;0.30;90.32
48204;BME280;33994;50.998;5.864;2023-01-25T06:28:44;102997.91;;;0.24;89.64
48204;BME280;33994;50.998;5.864;2023-01-25T06:31:49;102990.66;;;0.18;90.00
48204;BME280;33994;50.998;5.864;2023-01-25T06:34:52;102985.25;;;0.13;90.30
48204;BME280;33994;50.998;5.864;2023-01-25T06:37:55;102985.97;;;0.11;90.72
48204;BME280;33994;50.998;5.864;2023-01-25T06:40:59;102988.44;;;0.09;90.27
48204;BME280;33994;50.998;5.864;2023-01-25T06:44:02;102985.78;;;0.08;91.03
48204;BME280;33994;50.998;5.864;2023-01-25T06:47:08;102989.03;;;0.05;90.99
48204;BME280;33994;50.998;5.864;2023-01-25T06:50:12;102984.69;;;0.04;90.83
48204;BME280;33994;50.998;5.864;2023-01-25T06:53:14;102982.00;;;0.03;91.68
48204;BME280;33994;50.998;5.864;2023-01-25T06:56:19;102988.56;;;-0.03;91.56
48204;BME280;33994;50.998;5.864;2023-01-25T06:59:23;102978.19;;;-0.04;91.90
48204;BME280;33994;50.998;5.864;2023-01-25T07:02:27;102975.41;;;-0.07;91.84
48204;BME280;33994;50.998;5.864;2023-01-25T07:05:30;102971.34;;;-0.04;92.33
48204;BME280;33994;50.998;5.864;2023-01-25T07:08:34;102983.19;;;-0.06;92.36
48204;BME280;33994;50.998;5.864;2023-01-25T07:11:38;102977.19;;;-0.06;92.26
48204;BME280;33994;50.998;5.864;2023-01-25T07:14:41;102984.09;;;-0.05;92.63
48204;BME280;33994;50.998;5.864;2023-01-25T07:17:46;102985.00;;;-0.05;92.51
48204;BME280;33994;50.998;5.864;2023-01-25T07:20:49;102982.31;;;-0.06;93.00
48204;BME280;33994;50.998;5.864;2023-01-25T07:23:52;102980.75;;;-0.04;92.91
48204;BME280;33994;50.998;5.864;2023-01-25T07:26:55;102986.06;;;-0.01;92.65
48204;BME280;33994;50.998;5.864;2023-01-25T07:29:58;102975.09;;;0.02;92.88
48204;BME280;33994;50.998;5.864;2023-01-25T07:33:02;102975.19;;;0.03;92.80
48204;BME280;33994;50.998;5.864;2023-01-25T07:36:07;102974.00;;;-0.02;92.52
48204;BME280;33994;50.998;5.864;2023-01-25T07:39:10;102978.78;;;-0.08;92.92
48204;BME280;33994;50.998;5.864;2023-01-25T07:42:14;102980.63;;;-0.06;93.17
48204;BME280;33994;50.998;5.864;2023-01-25T07:45:17;102980.03;;;-0.02;92.93
48204;BME280;33994;50.998;5.864;2023-01-25T07:48:22;102988.63;;;-0.01;93.06
48204;BME280;33994;50.998;5.864;2023-01-25T07:51:24;102985.91;;;-0.04;92.99
48204;BME280;33994;50.998;5.864;2023-01-25T07:54:28;102988.63;;;-0.01;92.92
48204;BME280;33994;50.998;5.864;2023-01-25T07:57:31;102991.81;;;-0.05;93.00
48204;BME280;33994;50.998;5.864;2023-01-25T08:00:34;102982.72;;;-0.13;93.31
48204;BME280;33994;50.998;5.864;2023-01-25T08:03:38;102986.28;;;-0.11;93.19
48204;BME280;33994;50.998;5.864;2023-01-25T08:06:42;102982.13;;;-0.09;92.94
48204;BME280;33994;50.998;5.864;2023-01-25T08:09:45;102982.13;;;-0.09;93.39
48204;BME280;33994;50.998;5.864;2023-01-25T08:12:49;102986.38;;;-0.10;93.37
48204;BME280;33994;50.998;5.864;2023-01-25T08:15:52;102980.34;;;-0.10;93.12
48204;BME280;33994;50.998;5.864;2023-01-25T08:18:58;102974.53;;;-0.08;93.39
48204;BME280;33994;50.998;5.864;2023-01-25T08:22:02;102974.53;;;-0.08;93.23
48204;BME280;33994;50.998;5.864;2023-01-25T08:25:06;102979.53;;;-0.09;93.22
48204;BME280;33994;50.998;5.864;2023-01-25T08:28:09;102973.44;;;-0.11;93.23
48204;BME280;33994;50.998;5.864;2023-01-25T08:31:15;102973.16;;;-0.16;93.35
48204;BME280;33994;50.998;5.864;2023-01-25T08:34:19;102964.53;;;-0.16;93.59
48204;BME280;33994;50.998;5.864;2023-01-25T08:37:23;102968.59;;;-0.20;93.49
48204;BME280;33994;50.998;5.864;2023-01-25T08:40:26;102966.81;;;-0.21;93.54
48204;BME280;33994;50.998;5.864;2023-01-25T08:43:29;102965.91;;;-0.21;93.94
48204;BME280;33994;50.998;5.864;2023-01-25T08:46:32;102967.00;;;-0.18;94.26
48204;BME280;33994;50.998;5.864;2023-01-25T08:49:37;102968.69;;;-0.18;94.08
48204;BME280;33994;50.998;5.864;2023-01-25T08:52:40;102950.28;;;-0.11;94.06
48204;BME280;33994;50.998;5.864;2023-01-25T08:55:44;102953.94;;;-0.08;93.75
48204;BME280;33994;50.998;5.864;2023-01-25T08:58:48;102964.91;;;-0.10;93.52
48204;BME280;33994;50.998;5.864;2023-01-25T09:01:52;102957.19;;;-0.10;93.88
48204;BME280;33994;50.998;5.864;2023-01-25T09:04:56;102947.72;;;-0.11;93.76
48204;BME280;33994;50.998;5.864;2023-01-25T09:08:00;102940.69;;;-0.14;93.76
48204;BME280;33994;50.998;5.864;2023-01-25T09:11:05;102940.41;;;-0.18;94.38
48204;BME280;33994;50.998;5.864;2023-01-25T09:14:08;102942.09;;;-0.19;93.88
48204;BME280;33994;50.998;5.864;2023-01-25T09:17:11;102949.81;;;-0.19;94.34
48204;BME280;33994;50.998;5.864;2023-01-25T09:20:16;102951.56;;;-0.18;93.97
48204;BME280;33994;50.998;5.864;2023-01-25T09:23:18;102941.38;;;-0.16;94.38
48204;BME280;33994;50.998;5.864;2023-01-25T09:26:22;102941.38;;;-0.16;94.51
48204;BME280;33994;50.998;5.864;2023-01-25T09:29:25;102940.47;;;-0.17;94.62
48204;BME280;33994;50.998;5.864;2023-01-25T09:32:28;102938.78;;;-0.16;94.52
48204;BME280;33994;50.998;5.864;2023-01-25T09:35:32;102930.03;;;-0.20;94.50
48204;BME280;33994;50.998;5.864;2023-01-25T09:38:37;102930.59;;;-0.24;94.08
48204;BME280;33994;50.998;5.864;2023-01-25T09:45:35;102925.78;;;-0.33;94.80
48204;BME280;33994;50.998;5.864;2023-01-25T09:48:44;102927.56;;;-0.32;95.04
48204;BME280;33994;50.998;5.864;2023-01-25T09:52:07;102927.75;;;-0.29;95.25
48204;BME280;33994;50.998;5.864;2023-01-25T09:55:15;102926.38;;;-0.23;95.47
48204;BME280;33994;50.998;5.864;2023-01-25T09:58:25;102923.81;;;-0.23;95.06
48204;BME280;33994;50.998;5.864;2023-01-25T10:01:36;102921.22;;;-0.23;94.87
48204;BME280;33994;50.998;5.864;2023-01-25T10:04:42;102916.25;;;-0.20;94.82
48204;BME280;33994;50.998;5.864;2023-01-25T10:07:55;102923.19;;;-0.19;94.96
48204;BME280;33994;50.998;5.864;2023-01-25T10:11:04;102915.47;;;-0.19;94.46
48204;BME280;33994;50.998;5.864;2023-01-25T10:14:13;102910.94;;;-0.23;94.85
48204;BME280;33994;50.998;5.864;2023-01-25T10:17:22;102915.38;;;-0.21;95.23
48204;BME280;33994;50.998;5.864;2023-01-25T10:20:34;102917.84;;;-0.22;95.11
48204;BME280;33994;50.998;5.864;2023-01-25T10:23:56;102919.63;;;-0.21;94.56
48204;BME280;33994;50.998;5.864;2023-01-25T10:27:15;102910.34;;;-0.19;94.63
48204;BME280;33994;50.998;5.864;2023-01-25T10:30:26;102906.88;;;-0.20;94.62
48204;BME280;33994;50.998;5.864;2023-01-25T10:33:30;102909.34;;;-0.21;94.75
48204;BME280;33994;50.998;5.864;2023-01-25T10:36:35;102897.97;;;-0.25;93.98
48204;BME280;33994;50.998;5.864;2023-01-25T10:39:44;102895.50;;;-0.23;94.00
48204;BME280;33994;50.998;5.864;2023-01-25T10:42:54;102890.53;;;-0.20;93.65
48204;BME280;33994;50.998;5.864;2023-01-25T10:45:58;102883.81;;;-0.18;94.11
48204;BME280;33994;50.998;5.864;2023-01-25T10:49:14;102875.28;;;-0.17;93.72
48204;BME280;33994;50.998;5.864;2023-01-25T10:52:23;102876.50;;;-0.12;93.53
48204;BME280;33994;50.998;5.864;2023-01-25T10:55:28;102869.47;;;-0.15;93.74
48204;BME280;33994;50.998;5.864;2023-01-25T10:58:33;102869.19;;;-0.19;93.93
48204;BME280;33994;50.998;5.864;2023-01-25T11:01:37;102865.00;;;-0.17;93.48
48204;BME280;33994;50.998;5.864;2023-01-25T11:04:40;102860.13;;;-0.13;93.79
48204;BME280;33994;50.998;5.864;2023-01-25T11:07:43;102857.56;;;-0.13;93.54
48204;BME280;33994;50.998;5.864;2023-01-25T11:10:49;102856.69;;;-0.13;93.11
48204;BME280;33994;50.998;5.864;2023-01-25T11:13:53;102841.88;;;-0.17;93.29
48204;BME280;33994;50.998;5.864;2023-01-25T11:16:57;102846.59;;;-0.10;93.71
48204;BME280;33994;50.998;5.864;2023-01-25T11:20:19;102826.19;;;-0.07;93.00
48204;BME280;33994;50.998;5.864;2023-01-25T11:23:24;102834.00;;;-0.06;92.82
48204;BME280;33994;50.998;5.864;2023-01-25T11:26:31;102821.06;;;-0.07;93.04
48204;BME280;33994;50.998;5.864;2023-01-25T11:29:34;102817.34;;;-0.12;92.46
48204;BME280;33994;50.998;5.864;2023-01-25T11:32:38;102805.97;;;-0.16;92.51
48204;BME280;33994;50.998;5.864;2023-01-25T11:35:57;102813.97;;;-0.11;92.14
48204;BME280;33994;50.998;5.864;2023-01-25T11:39:13;102814.84;;;-0.11;91.92
48204;BME280;33994;50.998;5.864;2023-01-25T11:42:27;102795.22;;;-0.09;92.37
48204;BME280;33994;50.998;5.864;2023-01-25T11:49:23;102781.84;;;-0.03;91.64
48204;BME280;33994;50.998;5.864;2023-01-25T11:52:36;102766.22;;;-0.06;91.31
48204;BME280;33994;50.998;5.864;2023-01-25T11:55:46;102765.28;;;-0.08;91.21
48204;BME280;33994;50.998;5.864;2023-01-25T11:59:04;102754.22;;;-0.20;91.31
48204;BME280;33994;50.998;5.864;2023-01-25T12:02:36;102748.63;;;-0.28;90.92
48204;BME280;33994;50.998;5.864;2023-01-25T12:05:56;102731.25;;;-0.32;91.80
48204;BME280;33994;50.998;5.864;2023-01-25T12:09:24;102726.66;;;-0.23;91.74
48204;BME280;33994;50.998;5.864;2023-01-25T12:12:39;102722.75;;;-0.16;91.49
48204;BME280;33994;50.998;5.864;2023-01-25T12:15:59;102706.72;;;-0.12;91.66
48204;BME280;33994;50.998;5.864;2023-01-25T12:19:31;102703.44;;;-0.10;91.36
48204;BME280;33994;50.998;5.864;2023-01-25T12:22:44;102698.41;;;-0.08;91.63
48204;BME280;33994;50.998;5.864;2023-01-25T12:26:03;102688.09;;;-0.08;91.55
48204;BME280;33994;50.998;5.864;2023-01-25T12:29:17;102666.53;;;-0.10;91.40
48204;BME280;33994;50.998;5.864;2023-01-25T12:32:29;102665.28;;;-0.02;91.35
48204;BME280;33994;50.998;5.864;2023-01-25T12:35:37;102661.75;;;-0.04;91.74
48204;BME280;33994;50.998;5.864;2023-01-25T12:38:49;102651.28;;;-0.07;91.16
48204;BME280;33994;50.998;5.864;2023-01-25T12:41:57;102639.94;;;-0.11;91.37
48204;BME280;33994;50.998;5.864;2023-01-25T12:45:07;102629.81;;;-0.08;91.59
48204;BME280;33994;50.998;5.864;2023-01-25T12:48:17;102617.84;;;-0.07;91.69
48204;BME280;33994;50.998;5.864;2023-01-25T12:51:23;102611.72;;;-0.09;91.72
48204;BME280;33994;50.998;5.864;2023-01-25T12:54:33;102610.66;;;-0.13;92.44
48204;BME280;33994;50.998;5.864;2023-01-25T12:57:42;102604.44;;;-0.02;92.84
48204;BME280;33994;50.998;5.864;2023-01-25T13:00:51;102601.59;;;0.09;92.61
48204;BME280;33994;50.998;5.864;2023-01-25T13:04:08;102597.31;;;0.09;92.05
48204;BME280;33994;50.998;5.864;2023-01-25T13:07:23;102585.44;;;0.11;92.08
48204;BME280;33994;50.998;5.864;2023-01-25T13:10:30;102578.69;;;0.13;92.02
48204;BME280;33994;50.998;5.864;2023-01-25T13:13:35;102570.00;;;0.11;91.82
48204;BME280;33994;50.998;5.864;2023-01-25T13:16:42;102574.09;;;0.08;91.99
48204;BME280;33994;50.998;5.864;2023-01-25T13:19:47;102571.53;;;0.08;91.80
48204;BME280;33994;50.998;5.864;2023-01-25T13:22:54;102564.84;;;0.11;91.70
48204;BME280;33994;50.998;5.864;2023-01-25T13:26:37;102565.81;;;0.13;91.26
48204;BME280;33994;50.998;5.864;2023-01-25T13:29:43;102558.09;;;0.13;91.15
48204;BME280;33994;50.998;5.864;2023-01-25T13:32:58;102548.59;;;0.12;90.77
48204;BME280;33994;50.998;5.864;2023-01-25T13:36:41;102553.75;;;0.12;90.64
48204;BME280;33994;50.998;5.864;2023-01-25T13:39:47;102550.19;;;0.10;90.70
48204;BME280;33994;50.998;5.864;2023-01-25T13:42:58;102546.75;;;0.10;91.07
48204;BME280;33994;50.998;5.864;2023-01-25T13:46:03;102539.13;;;0.11;91.26
48204;BME280;33994;50.998;5.864;2023-01-25T13:49:17;102526.25;;;0.11;91.04
48204;BME280;33994;50.998;5.864;2023-01-25T13:52:25;102529.25;;;0.19;91.25
48204;BME280;33994;50.998;5.864;2023-01-25T13:55:37;102521.53;;;0.19;91.36
48204;BME280;33994;50.998;5.864;2023-01-25T13:58:44;102530.03;;;0.18;91.57
48204;BME280;33994;50.998;5.864;2023-01-25T14:01:48;102525.00;;;0.19;91.48
48204;BME280;33994;50.998;5.864;2023-01-25T14:04:51;102524.19;;;0.20;91.54
48204;BME280;33994;50.998;5.864;2023-01-25T14:07:56;102527.09;;;0.27;91.67
48204;BME280;33994;50.998;5.864;2023-01-25T14:10:59;102520.25;;;0.27;91.31
48204;BME280;33994;50.998;5.864;2023-01-25T14:14:16;102522.19;;;0.31;91.73
48204;BME280;33994;50.998;5.864;2023-01-25T14:17:20;102522.38;;;0.34;91.19
48204;BME280;33994;50.998;5.864;2023-01-25T14:20:24;102519.91;;;0.21;91.09
48204;BME280;33994;50.998;5.864;2023-01-25T14:23:29;102516.53;;;0.22;91.60
48204;BME280;33994;50.998;5.864;2023-01-25T14:26:33;102506.97;;;0.19;91.55
48204;BME280;33994;50.998;5.864;2023-01-25T14:29:37;102500.06;;;0.18;91.36
48204;BME280;33994;50.998;5.864;2023-01-25T14:32:40;102495.81;;;0.19;91.19
48204;BME280;33994;50.998;5.864;2023-01-25T14:35:44;102499.16;;;0.18;91.65
48204;BME280;33994;50.998;5.864;2023-01-25T14:38:48;102496.34;;;0.13;91.86
48204;BME280;33994;50.998;5.864;2023-01-25T14:41:52;102494.75;;;0.15;91.73
48204;BME280;33994;50.998;5.864;2023-01-25T14:44:56;102487.81;;;0.14;92.24
48204;BME280;33994;50.998;5.864;2023-01-25T14:47:59;102491.38;;;0.16;91.88
48204;BME280;33994;50.998;5.864;2023-01-25T14:51:09;102482.84;;;0.17;92.56
48204;BME280;33994;50.998;5.864;2023-01-25T14:54:17;102483.66;;;0.16;92.32
48204;BME280;33994;50.998;5.864;2023-01-25T14:57:30;102489.84;;;0.20;92.61
48204;BME280;33994;50.998;5.864;2023-01-25T15:00:35;102486.38;;;0.19;92.54
48204;BME280;33994;50.998;5.864;2023-01-25T15:03:41;102478.75;;;0.21;92.25
48204;BME280;33994;50.998;5.864;2023-01-25T15:06:46;102483.47;;;0.30;91.85
48204;BME280;33994;50.998;5.864;2023-01-25T15:10:02;102480.59;;;0.24;91.52
48204;BME280;33994;50.998;5.864;2023-01-25T15:13:19;102480.38;;;0.19;91.32
48204;BME280;33994;50.998;5.864;2023-01-25T15:16:31;102481.13;;;0.18;91.67
48204;BME280;33994;50.998;5.864;2023-01-25T15:19:35;102470.13;;;0.20;91.85
48204;BME280;33994;50.998;5.864;2023-01-25T15:22:38;102472.06;;;0.25;91.75
48204;BME280;33994;50.998;5.864;2023-01-25T15:25:53;102476.97;;;0.20;91.93
48204;BME280;33994;50.998;5.864;2023-01-25T15:28:58;102469.19;;;0.18;92.07
48204;BME280;33994;50.998;5.864;2023-01-25T15:32:01;102460.97;;;0.26;92.48
48204;BME280;33994;50.998;5.864;2023-01-25T15:35:05;102465.41;;;0.28;91.78
48204;BME280;33994;50.998;5.864;2023-01-25T15:38:13;102461.78;;;0.25;91.62
48204;BME280;33994;50.998;5.864;2023-01-25T15:41:18;102454.16;;;0.26;92.06
48204;BME280;33994;50.998;5.864;2023-01-25T15:44:21;102450.66;;;0.26;92.10
48204;BME280;33994;50.998;5.864;2023-01-25T15:47:24;102452.13;;;0.20;92.07
48204;BME280;33994;50.998;5.864;2023-01-25T15:50:28;102447.69;;;0.18;91.81
48204;BME280;33994;50.998;5.864;2023-01-25T15:53:32;102441.66;;;0.17;91.88
48204;BME280;33994;50.998;5.864;2023-01-25T15:56:39;102438.13;;;0.15;91.40
48204;BME280;33994;50.998;5.864;2023-01-25T15:59:43;102437.91;;;0.11;91.29
48204;BME280;33994;50.998;5.864;2023-01-25T16:02:46;102435.22;;;0.09;90.96
48204;BME280;33994;50.998;5.864;2023-01-25T16:05:53;102434.41;;;0.10;90.65
48204;BME280;33994;50.998;5.864;2023-01-25T16:08:58;102433.16;;;0.18;91.08
48204;BME280;33994;50.998;5.864;2023-01-25T16:12:03;102434.81;;;0.18;91.18
48204;BME280;33994;50.998;5.864;2023-01-25T16:15:07;102433.06;;;0.17;90.42
48204;BME280;33994;50.998;5.864;2023-01-25T16:18:11;102437.81;;;0.09;90.40
48204;BME280;33994;50.998;5.864;2023-01-25T16:21:15;102434.28;;;0.07;90.55
48204;BME280;33994;50.998;5.864;2023-01-25T16:24:18;102436.91;;;0.09;90.14
48204;BME280;33994;50.998;5.864;2023-01-25T16:27:23;102432.66;;;0.09;90.32
48204;BME280;33994;50.998;5.864;2023-01-25T16:30:26;102434.41;;;0.10;90.55